sensor_id;sensor_type;location;lat;lon;timestamp;temperature;humidity
13148;DHT22;6639;50.956;4.242;2023-04-23T00:01:59;15.30;99.90
13148;DHT22;6639;50.956;4.242;2023-04-23T00:04:27;14.80;99.90
13148;DHT22;6639;50.956;4.242;2023-04-23T00:06:56;14.90;99.90
13148;DHT22;6639;50.956;4.242;2023-04-23T00:09:26;14.80;99.90
13148;DHT22;6639;50.956;4.242;2023-04-23T00:11:54;15.20;99.90
13148;DHT22;6639;50.956;4.242;2023-04-23T00:14:23;15.30;99.90
13148;DHT22;6639;50.956;4.242;2023-04-23T00:16:50;15.40;99.90
13148;DHT22;6639;50.956;4.242;2023-04-23T00:19:19;15.40;99.90
13148;DHT22;6639;50.956;4.242;2023-04-23T00:21:46;15.20;99.90
13148;DHT22;6639;50.956;4.242;2023-04-23T00:24:13;15.20;99.90
13148;DHT22;6639;50.956;4.242;2023-04-23T00:26:40;14.90;99.90
13148;DHT22;6639;50.956;4.242;2023-04-23T00:29:07;14.70;99.90
13148;DHT22;6639;50.956;4.242;2023-04-23T00:31:34;14.90;99.90
13148;DHT22;6639;50.956;4.242;2023-04-23T00:34:01;15.00;99.90
13148;DHT22;6639;50.956;4.242;2023-04-23T00:36:29;15.00;99.90
13148;DHT22;6639;50.956;4.242;2023-04-23T00:38:56;15.10;99.90
13148;DHT22;6639;50.956;4.242;2023-04-23T00:41:23;14.90;99.90
13148;DHT22;6639;50.956;4.242;2023-04-23T00:43:52;15.20;99.90
13148;DHT22;6639;50.956;4.242;2023-04-23T00:46:19;15.40;99.90
13148;DHT22;6639;50.956;4.242;2023-04-23T00:48:46;15.10;99.90
13148;DHT22;6639;50.956;4.242;2023-04-23T00:51:15;15.10;99.90
13148;DHT22;6639;50.956;4.242;2023-04-23T00:53:43;14.70;99.90
13148;DHT22;6639;50.956;4.242;2023-04-23T00:56:10;14.60;99.90
13148;DHT22;6639;50.956;4.242;2023-04-23T00:58:38;14.60;99.90
13148;DHT22;6639;50.956;4.242;2023-04-23T01:01:05;14.50;99.90
13148;DHT22;6639;50.956;4.242;2023-04-23T01:03:33;14.80;99.90
13148;DHT22;6639;50.956;4.242;2023-04-23T01:06:01;14.90;99.90
13148;DHT22;6639;50.956;4.242;2023-04-23T01:08:30;14.90;99.90
13148;DHT22;6639;50.956;4.242;2023-04-23T01:10:59;14.70;99.90
13148;DHT22;6639;50.956;4.242;2023-04-23T01:13:28;14.90;99.90
13148;DHT22;6639;50.956;4.242;2023-04-23T01:15:56;15.00;99.90
13148;DHT22;6639;50.956;4.242;2023-04-23T01:18:23;14.70;99.90
13148;DHT22;6639;50.956;4.242;2023-04-23T01:20:50;14.90;99.90
13148;DHT22;6639;50.956;4.242;2023-04-23T01:23:19;15.20;99.90
13148;DHT22;6639;50.956;4.242;2023-04-23T01:25:46;15.40;99.90
13148;DHT22;6639;50.956;4.242;2023-04-23T01:28:13;15.40;99.90
13148;DHT22;6639;50.956;4.242;2023-04-23T01:30:42;15.10;99.90
13148;DHT22;6639;50.956;4.242;2023-04-23T01:33:10;15.30;99.90
13148;DHT22;6639;50.956;4.242;2023-04-23T01:35:38;15.40;99.90
13148;DHT22;6639;50.956;4.242;2023-04-23T01:38:08;14.90;99.90
13148;DHT22;6639;50.956;4.242;2023-04-23T01:40:37;15.20;99.90
13148;DHT22;6639;50.956;4.242;2023-04-23T01:43:04;15.60;99.90
13148;DHT22;6639;50.956;4.242;2023-04-23T01:45:31;15.80;99.90
13148;DHT22;6639;50.956;4.242;2023-04-23T01:47:58;16.20;99.90
13148;DHT22;6639;50.956;4.242;2023-04-23T01:50:26;16.30;99.90
13148;DHT22;6639;50.956;4.242;2023-04-23T01:52:54;16.30;99.90
13148;DHT22;6639;50.956;4.242;2023-04-23T01:55:21;16.30;99.90
13148;DHT22;6639;50.956;4.242;2023-04-23T01:57:49;16.10;99.90
13148;DHT22;6639;50.956;4.242;2023-04-23T02:00:17;16.10;99.90
13148;DHT22;6639;50.956;4.242;2023-04-23T02:02:45;16.00;99.90
13148;DHT22;6639;50.956;4.242;2023-04-23T02:05:14;16.00;99.90
13148;DHT22;6639;50.956;4.242;2023-04-23T02:07:43;16.00;99.90
13148;DHT22;6639;50.956;4.242;2023-04-23T02:10:11;16.30;99.90
13148;DHT22;6639;50.956;4.242;2023-04-23T02:12:38;16.20;99.90
13148;DHT22;6639;50.956;4.242;2023-04-23T02:15:08;16.20;99.90
13148;DHT22;6639;50.956;4.242;2023-04-23T02:17:35;16.00;99.90
13148;DHT22;6639;50.956;4.242;2023-04-23T02:20:05;16.20;99.90
13148;DHT22;6639;50.956;4.242;2023-04-23T02:22:34;16.10;99.90
13148;DHT22;6639;50.956;4.242;2023-04-23T02:25:01;16.30;99.90
13148;DHT22;6639;50.956;4.242;2023-04-23T02:27:28;15.40;99.90
13148;DHT22;6639;50.956;4.242;2023-04-23T02:29:55;15.40;99.90
13148;DHT22;6639;50.956;4.242;2023-04-23T02:32:23;15.60;99.90
13148;DHT22;6639;50.956;4.242;2023-04-23T02:34:50;15.50;99.90
13148;DHT22;6639;50.956;4.242;2023-04-23T02:37:18;15.60;99.90
13148;DHT22;6639;50.956;4.242;2023-04-23T02:39:45;15.70;99.90
13148;DHT22;6639;50.956;4.242;2023-04-23T02:42:12;15.30;99.90
13148;DHT22;6639;50.956;4.242;2023-04-23T02:44:39;15.30;99.90
13148;DHT22;6639;50.956;4.242;2023-04-23T02:47:06;15.70;99.90
13148;DHT22;6639;50.956;4.242;2023-04-23T02:49:34;15.70;99.90
13148;DHT22;6639;50.956;4.242;2023-04-23T02:52:01;16.20;99.90
13148;DHT22;6639;50.956;4.242;2023-04-23T02:54:28;16.30;99.90
13148;DHT22;6639;50.956;4.242;2023-04-23T02:56:56;16.20;99.90
13148;DHT22;6639;50.956;4.242;2023-04-23T02:59:23;16.40;99.90
13148;DHT22;6639;50.956;4.242;2023-04-23T03:01:50;16.50;99.90
13148;DHT22;6639;50.956;4.242;2023-04-23T03:04:17;17.00;99.90
13148;DHT22;6639;50.956;4.242;2023-04-23T03:06:46;17.10;99.90
13148;DHT22;6639;50.956;4.242;2023-04-23T03:09:13;17.10;99.90
13148;DHT22;6639;50.956;4.242;2023-04-23T03:11:41;17.00;99.90
13148;DHT22;6639;50.956;4.242;2023-04-23T03:14:08;16.70;99.90
13148;DHT22;6639;50.956;4.242;2023-04-23T03:16:35;16.90;99.90
13148;DHT22;6639;50.956;4.242;2023-04-23T03:19:02;17.00;99.90
13148;DHT22;6639;50.956;4.242;2023-04-23T03:21:29;16.90;99.90
13148;DHT22;6639;50.956;4.242;2023-04-23T03:23:57;16.90;99.90
13148;DHT22;6639;50.956;4.242;2023-04-23T03:26:24;16.80;99.90
13148;DHT22;6639;50.956;4.242;2023-04-23T03:28:51;17.00;99.90
13148;DHT22;6639;50.956;4.242;2023-04-23T03:31:18;16.30;99.90
13148;DHT22;6639;50.956;4.242;2023-04-23T03:33:45;16.20;99.90
13148;DHT22;6639;50.956;4.242;2023-04-23T03:36:12;16.10;99.90
13148;DHT22;6639;50.956;4.242;2023-04-23T03:38:40;16.10;99.90
13148;DHT22;6639;50.956;4.242;2023-04-23T03:41:08;16.00;99.90
13148;DHT22;6639;50.956;4.242;2023-04-23T03:43:35;15.80;99.90
13148;DHT22;6639;50.956;4.242;2023-04-23T03:46:02;15.60;99.90
13148;DHT22;6639;50.956;4.242;2023-04-23T03:48:29;15.80;99.90
13148;DHT22;6639;50.956;4.242;2023-04-23T03:50:56;16.00;99.90
13148;DHT22;6639;50.956;4.242;2023-04-23T03:53:23;16.10;99.90
13148;DHT22;6639;50.956;4.242;2023-04-23T03:55:50;15.60;99.90
13148;DHT22;6639;50.956;4.242;2023-04-23T03:58:18;15.60;99.90
13148;DHT22;6639;50.956;4.242;2023-04-23T04:00:45;15.40;99.90
13148;DHT22;6639;50.956;4.242;2023-04-23T04:03:12;15.50;99.90
13148;DHT22;6639;50.956;4.242;2023-04-23T04:05:39;15.60;99.90
13148;DHT22;6639;50.956;4.242;2023-04-23T04:08:06;15.50;99.90
13148;DHT22;6639;50.956;4.242;2023-04-23T04:10:33;15.20;99.90
13148;DHT22;6639;50.956;4.242;2023-04-23T04:13:00;15.00;99.90
13148;DHT22;6639;50.956;4.242;2023-04-23T04:15:28;15.20;99.90
13148;DHT22;6639;50.956;4.242;2023-04-23T04:17:56;15.10;99.90
13148;DHT22;6639;50.956;4.242;2023-04-23T04:20:24;15.10;99.90
13148;DHT22;6639;50.956;4.242;2023-04-23T04:22:53;14.60;99.90
13148;DHT22;6639;50.956;4.242;2023-04-23T04:25:20;14.60;99.90
13148;DHT22;6639;50.956;4.242;2023-04-23T04:27:48;14.80;99.90
13148;DHT22;6639;50.956;4.242;2023-04-23T04:30:15;14.60;99.90
13148;DHT22;6639;50.956;4.242;2023-04-23T04:32:44;14.90;99.90
13148;DHT22;6639;50.956;4.242;2023-04-23T04:35:11;14.70;99.90
13148;DHT22;6639;50.956;4.242;2023-04-23T04:37:39;14.90;99.90
13148;DHT22;6639;50.956;4.242;2023-04-23T04:40:07;15.10;99.90
13148;DHT22;6639;50.956;4.242;2023-04-23T04:42:36;14.90;99.90
13148;DHT22;6639;50.956;4.242;2023-04-23T04:45:05;14.60;99.90
13148;DHT22;6639;50.956;4.242;2023-04-23T04:47:33;14.50;99.90
13148;DHT22;6639;50.956;4.242;2023-04-23T04:50:02;14.50;99.90
13148;DHT22;6639;50.956;4.242;2023-04-23T04:52:29;14.20;99.90
13148;DHT22;6639;50.956;4.242;2023-04-23T04:54:56;14.10;99.90
13148;DHT22;6639;50.956;4.242;2023-04-23T04:57:23;14.20;99.90
13148;DHT22;6639;50.956;4.242;2023-04-23T04:59:50;14.20;99.90
13148;DHT22;6639;50.956;4.242;2023-04-23T05:02:18;14.30;99.90
13148;DHT22;6639;50.956;4.242;2023-04-23T05:04:46;14.40;99.90
13148;DHT22;6639;50.956;4.242;2023-04-23T05:07:14;14.70;99.90
13148;DHT22;6639;50.956;4.242;2023-04-23T05:09:41;14.90;99.90
13148;DHT22;6639;50.956;4.242;2023-04-23T05:12:08;14.70;99.90
13148;DHT22;6639;50.956;4.242;2023-04-23T05:14:35;14.90;99.90
13148;DHT22;6639;50.956;4.242;2023-04-23T05:17:02;15.10;99.90
13148;DHT22;6639;50.956;4.242;2023-04-23T05:19:29;15.10;99.90
13148;DHT22;6639;50.956;4.242;2023-04-23T05:21:56;15.40;99.90
13148;DHT22;6639;50.956;4.242;2023-04-23T05:24:25;15.80;99.90
13148;DHT22;6639;50.956;4.242;2023-04-23T05:26:52;15.90;99.90
13148;DHT22;6639;50.956;4.242;2023-04-23T05:29:19;16.40;99.90
13148;DHT22;6639;50.956;4.242;2023-04-23T05:31:46;16.00;99.90
13148;DHT22;6639;50.956;4.242;2023-04-23T05:34:13;16.00;99.90
13148;DHT22;6639;50.956;4.242;2023-04-23T05:36:40;15.90;99.90
13148;DHT22;6639;50.956;4.242;2023-04-23T05:39:07;16.20;99.90
13148;DHT22;6639;50.956;4.242;2023-04-23T05:41:35;16.60;99.90
13148;DHT22;6639;50.956;4.242;2023-04-23T05:44:02;16.70;99.90
13148;DHT22;6639;50.956;4.242;2023-04-23T05:46:29;17.00;99.90
13148;DHT22;6639;50.956;4.242;2023-04-23T05:48:56;16.90;99.90
13148;DHT22;6639;50.956;4.242;2023-04-23T05:51:23;16.60;99.90
13148;DHT22;6639;50.956;4.242;2023-04-23T05:53:50;16.70;99.90
13148;DHT22;6639;50.956;4.242;2023-04-23T05:56:16;16.20;99.90
13148;DHT22;6639;50.956;4.242;2023-04-23T05:58:45;16.40;99.90
13148;DHT22;6639;50.956;4.242;2023-04-23T06:01:12;16.60;99.90
13148;DHT22;6639;50.956;4.242;2023-04-23T06:03:39;16.90;99.90
13148;DHT22;6639;50.956;4.242;2023-04-23T06:06:09;16.80;99.90
13148;DHT22;6639;50.956;4.242;2023-04-23T06:08:36;16.60;99.90
13148;DHT22;6639;50.956;4.242;2023-04-23T06:11:04;16.70;99.90
13148;DHT22;6639;50.956;4.242;2023-04-23T06:13:31;16.90;99.90
13148;DHT22;6639;50.956;4.242;2023-04-23T06:16:00;17.50;99.90
13148;DHT22;6639;50.956;4.242;2023-04-23T06:18:27;17.60;99.90
13148;DHT22;6639;50.956;4.242;2023-04-23T06:20:54;17.60;99.90
13148;DHT22;6639;50.956;4.242;2023-04-23T06:23:21;17.10;99.90
13148;DHT22;6639;50.956;4.242;2023-04-23T06:25:49;17.40;99.90
13148;DHT22;6639;50.956;4.242;2023-04-23T06:28:16;17.20;99.90
13148;DHT22;6639;50.956;4.242;2023-04-23T06:30:43;17.70;99.90
13148;DHT22;6639;50.956;4.242;2023-04-23T06:33:11;17.60;99.90
13148;DHT22;6639;50.956;4.242;2023-04-23T06:35:38;17.50;99.90
13148;DHT22;6639;50.956;4.242;2023-04-23T06:38:06;17.30;99.90
13148;DHT22;6639;50.956;4.242;2023-04-23T06:40:41;17.30;99.90
13148;DHT22;6639;50.956;4.242;2023-04-23T06:43:08;17.50;99.90
13148;DHT22;6639;50.956;4.242;2023-04-23T06:45:35;17.70;99.90
13148;DHT22;6639;50.956;4.242;2023-04-23T06:48:02;18.30;99.90
13148;DHT22;6639;50.956;4.242;2023-04-23T06:50:30;18.40;99.90
13148;DHT22;6639;50.956;4.242;2023-04-23T06:52:57;18.30;99.90
13148;DHT22;6639;50.956;4.242;2023-04-23T06:55:24;18.60;99.90
13148;DHT22;6639;50.956;4.242;2023-04-23T06:57:53;18.50;99.90
13148;DHT22;6639;50.956;4.242;2023-04-23T07:00:21;18.40;99.90
13148;DHT22;6639;50.956;4.242;2023-04-23T07:02:48;18.40;99.90
13148;DHT22;6639;50.956;4.242;2023-04-23T07:05:15;18.60;99.90
13148;DHT22;6639;50.956;4.242;2023-04-23T07:08:17;18.70;99.90
13148;DHT22;6639;50.956;4.242;2023-04-23T07:10:45;18.80;99.90
13148;DHT22;6639;50.956;4.242;2023-04-23T07:13:12;19.30;99.90
13148;DHT22;6639;50.956;4.242;2023-04-23T07:15:39;18.90;99.90
13148;DHT22;6639;50.956;4.242;2023-04-23T07:18:08;19.00;99.90
13148;DHT22;6639;50.956;4.242;2023-04-23T07:20:38;19.40;99.90
13148;DHT22;6639;50.956;4.242;2023-04-23T07:23:05;19.60;99.90
13148;DHT22;6639;50.956;4.242;2023-04-23T07:25:33;19.70;99.90
13148;DHT22;6639;50.956;4.242;2023-04-23T07:28:00;19.70;99.90
13148;DHT22;6639;50.956;4.242;2023-04-23T07:30:30;19.50;99.90
13148;DHT22;6639;50.956;4.242;2023-04-23T07:32:57;19.60;99.90
13148;DHT22;6639;50.956;4.242;2023-04-23T07:35:24;20.00;99.90
13148;DHT22;6639;50.956;4.242;2023-04-23T07:37:51;19.90;99.90
13148;DHT22;6639;50.956;4.242;2023-04-23T07:40:20;19.70;99.90
13148;DHT22;6639;50.956;4.242;2023-04-23T07:42:53;19.70;99.90
13148;DHT22;6639;50.956;4.242;2023-04-23T07:45:24;19.70;99.90
13148;DHT22;6639;50.956;4.242;2023-04-23T07:47:51;19.70;99.90
13148;DHT22;6639;50.956;4.242;2023-04-23T07:50:18;19.70;99.90
13148;DHT22;6639;50.956;4.242;2023-04-23T07:52:45;19.80;99.90
13148;DHT22;6639;50.956;4.242;2023-04-23T07:55:13;20.00;99.90
13148;DHT22;6639;50.956;4.242;2023-04-23T07:57:53;20.00;99.90
13148;DHT22;6639;50.956;4.242;2023-04-23T08:00:23;20.20;99.90
13148;DHT22;6639;50.956;4.242;2023-04-23T08:02:50;20.30;99.90
13148;DHT22;6639;50.956;4.242;2023-04-23T08:05:18;20.20;99.90
13148;DHT22;6639;50.956;4.242;2023-04-23T08:07:46;20.20;99.90
13148;DHT22;6639;50.956;4.242;2023-04-23T08:10:15;20.30;99.90
13148;DHT22;6639;50.956;4.242;2023-04-23T08:12:43;20.40;99.90
13148;DHT22;6639;50.956;4.242;2023-04-23T08:15:12;20.50;99.90
13148;DHT22;6639;50.956;4.242;2023-04-23T08:17:39;20.10;99.90
13148;DHT22;6639;50.956;4.242;2023-04-23T08:20:07;20.30;99.90
13148;DHT22;6639;50.956;4.242;2023-04-23T08:22:35;20.40;99.90
13148;DHT22;6639;50.956;4.242;2023-04-23T08:25:02;20.40;99.90
13148;DHT22;6639;50.956;4.242;2023-04-23T08:27:36;20.10;99.90
13148;DHT22;6639;50.956;4.242;2023-04-23T08:30:04;19.80;99.90
13148;DHT22;6639;50.956;4.242;2023-04-23T08:32:35;19.90;99.90
13148;DHT22;6639;50.956;4.242;2023-04-23T08:35:02;19.60;99.90
13148;DHT22;6639;50.956;4.242;2023-04-23T08:37:29;19.50;99.90
13148;DHT22;6639;50.956;4.242;2023-04-23T08:39:56;19.60;99.90
13148;DHT22;6639;50.956;4.242;2023-04-23T08:42:36;19.80;99.90
13148;DHT22;6639;50.956;4.242;2023-04-23T08:45:05;20.30;99.90
13148;DHT22;6639;50.956;4.242;2023-04-23T08:47:34;20.10;99.90
13148;DHT22;6639;50.956;4.242;2023-04-23T08:50:03;20.00;99.90
13148;DHT22;6639;50.956;4.242;2023-04-23T08:52:33;20.00;99.90
13148;DHT22;6639;50.956;4.242;2023-04-23T08:55:01;20.00;99.90
13148;DHT22;6639;50.956;4.242;2023-04-23T08:57:30;19.90;99.90
13148;DHT22;6639;50.956;4.242;2023-04-23T08:59:58;19.20;99.90
13148;DHT22;6639;50.956;4.242;2023-04-23T09:02:27;19.10;99.90
13148;DHT22;6639;50.956;4.242;2023-04-23T09:04:56;19.20;99.90
13148;DHT22;6639;50.956;4.242;2023-04-23T09:07:23;19.00;99.90
13148;DHT22;6639;50.956;4.242;2023-04-23T09:09:50;18.90;99.90
13148;DHT22;6639;50.956;4.242;2023-04-23T09:12:23;18.70;99.90
13148;DHT22;6639;50.956;4.242;2023-04-23T09:15:02;19.00;99.90
13148;DHT22;6639;50.956;4.242;2023-04-23T09:17:37;18.90;99.90
13148;DHT22;6639;50.956;4.242;2023-04-23T09:20:07;18.90;99.90
13148;DHT22;6639;50.956;4.242;2023-04-23T09:22:40;18.70;99.90
13148;DHT22;6639;50.956;4.242;2023-04-23T09:25:09;18.60;99.90
13148;DHT22;6639;50.956;4.242;2023-04-23T09:27:36;18.50;99.90
13148;DHT22;6639;50.956;4.242;2023-04-23T09:30:04;18.30;99.90
13148;DHT22;6639;50.956;4.242;2023-04-23T09:32:34;18.50;99.90
13148;DHT22;6639;50.956;4.242;2023-04-23T09:35:02;18.70;99.90
13148;DHT22;6639;50.956;4.242;2023-04-23T09:37:32;18.70;99.90
13148;DHT22;6639;50.956;4.242;2023-04-23T09:40:00;18.30;99.90
13148;DHT22;6639;50.956;4.242;2023-04-23T09:42:29;18.20;99.90
13148;DHT22;6639;50.956;4.242;2023-04-23T09:45:02;18.40;99.90
13148;DHT22;6639;50.956;4.242;2023-04-23T09:47:31;18.50;99.90
13148;DHT22;6639;50.956;4.242;2023-04-23T09:49:59;18.80;99.90
13148;DHT22;6639;50.956;4.242;2023-04-23T09:52:27;18.50;99.90
13148;DHT22;6639;50.956;4.242;2023-04-23T09:55:00;18.30;99.90
13148;DHT22;6639;50.956;4.242;2023-04-23T09:57:28;18.70;99.90
13148;DHT22;6639;50.956;4.242;2023-04-23T09:59:57;18.80;99.90
13148;DHT22;6639;50.956;4.242;2023-04-23T10:02:45;18.50;99.90
13148;DHT22;6639;50.956;4.242;2023-04-23T10:05:15;18.50;99.90
13148;DHT22;6639;50.956;4.242;2023-04-23T10:07:43;18.70;99.90
13148;DHT22;6639;50.956;4.242;2023-04-23T10:10:13;18.80;99.90
13148;DHT22;6639;50.956;4.242;2023-04-23T10:12:41;18.70;99.90
13148;DHT22;6639;50.956;4.242;2023-04-23T10:15:12;18.50;99.90
13148;DHT22;6639;50.956;4.242;2023-04-23T10:17:39;18.40;99.90
13148;DHT22;6639;50.956;4.242;2023-04-23T10:20:10;18.40;99.90
13148;DHT22;6639;50.956;4.242;2023-04-23T10:22:39;18.70;99.90
13148;DHT22;6639;50.956;4.242;2023-04-23T10:25:10;18.80;99.90
13148;DHT22;6639;50.956;4.242;2023-04-23T10:27:39;18.90;99.90
13148;DHT22;6639;50.956;4.242;2023-04-23T10:30:09;19.10;99.90
13148;DHT22;6639;50.956;4.242;2023-04-23T10:32:36;19.10;99.90
13148;DHT22;6639;50.956;4.242;2023-04-23T10:35:05;19.30;99.90
13148;DHT22;6639;50.956;4.242;2023-04-23T10:37:33;19.80;99.90
13148;DHT22;6639;50.956;4.242;2023-04-23T10:40:07;19.20;99.90
13148;DHT22;6639;50.956;4.242;2023-04-23T10:42:38;19.40;99.90
13148;DHT22;6639;50.956;4.242;2023-04-23T10:45:11;19.20;99.90
13148;DHT22;6639;50.956;4.242;2023-04-23T10:47:41;18.90;99.90
13148;DHT22;6639;50.956;4.242;2023-04-23T10:50:23;18.90;99.90
13148;DHT22;6639;50.956;4.242;2023-04-23T10:52:51;19.30;99.90
13148;DHT22;6639;50.956;4.242;2023-04-23T10:55:20;19.30;99.90
13148;DHT22;6639;50.956;4.242;2023-04-23T10:58:00;19.60;99.90
13148;DHT22;6639;50.956;4.242;2023-04-23T11:00:43;19.40;99.90
13148;DHT22;6639;50.956;4.242;2023-04-23T11:03:35;19.60;99.90
13148;DHT22;6639;50.956;4.242;2023-04-23T11:06:06;19.70;99.90
13148;DHT22;6639;50.956;4.242;2023-04-23T11:08:34;19.80;99.90
13148;DHT22;6639;50.956;4.242;2023-04-23T11:11:23;19.60;99.90
13148;DHT22;6639;50.956;4.242;2023-04-23T11:13:52;19.70;99.90
13148;DHT22;6639;50.956;4.242;2023-04-23T11:16:20;19.60;99.90
13148;DHT22;6639;50.956;4.242;2023-04-23T11:18:59;19.70;99.90
13148;DHT22;6639;50.956;4.242;2023-04-23T11:21:56;19.40;99.90
13148;DHT22;6639;50.956;4.242;2023-04-23T11:24:24;18.90;99.90
13148;DHT22;6639;50.956;4.242;2023-04-23T11:26:52;18.80;99.90
13148;DHT22;6639;50.956;4.242;2023-04-23T11:29:23;18.70;99.90
13148;DHT22;6639;50.956;4.242;2023-04-23T11:31:50;18.70;99.90
13148;DHT22;6639;50.956;4.242;2023-04-23T11:34:19;18.70;99.90
13148;DHT22;6639;50.956;4.242;2023-04-23T11:36:48;18.40;99.90
13148;DHT22;6639;50.956;4.242;2023-04-23T11:39:17;18.80;99.90
13148;DHT22;6639;50.956;4.242;2023-04-23T11:41:45;19.20;99.90
13148;DHT22;6639;50.956;4.242;2023-04-23T11:44:12;19.50;99.90
13148;DHT22;6639;50.956;4.242;2023-04-23T11:46:41;19.60;99.90
13148;DHT22;6639;50.956;4.242;2023-04-23T11:49:09;19.80;99.90
13148;DHT22;6639;50.956;4.242;2023-04-23T11:51:41;19.60;99.90
13148;DHT22;6639;50.956;4.242;2023-04-23T11:54:10;19.40;99.90
13148;DHT22;6639;50.956;4.242;2023-04-23T11:56:40;19.30;99.90
13148;DHT22;6639;50.956;4.242;2023-04-23T11:59:08;19.60;99.90
13148;DHT22;6639;50.956;4.242;2023-04-23T12:01:46;19.20;99.90
13148;DHT22;6639;50.956;4.242;2023-04-23T12:04:15;19.60;99.90
13148;DHT22;6639;50.956;4.242;2023-04-23T12:06:58;19.10;99.90
13148;DHT22;6639;50.956;4.242;2023-04-23T12:09:36;19.10;99.90
13148;DHT22;6639;50.956;4.242;2023-04-23T12:12:04;19.00;99.90
13148;DHT22;6639;50.956;4.242;2023-04-23T12:14:31;18.80;99.90
13148;DHT22;6639;50.956;4.242;2023-04-23T12:17:11;18.70;99.90
13148;DHT22;6639;50.956;4.242;2023-04-23T12:19:38;18.40;99.90
13148;DHT22;6639;50.956;4.242;2023-04-23T12:22:09;18.60;99.90
13148;DHT22;6639;50.956;4.242;2023-04-23T12:24:45;18.10;99.90
13148;DHT22;6639;50.956;4.242;2023-04-23T12:27:13;18.00;99.90
13148;DHT22;6639;50.956;4.242;2023-04-23T12:29:41;18.10;99.90
13148;DHT22;6639;50.956;4.242;2023-04-23T12:32:10;18.10;99.90
13148;DHT22;6639;50.956;4.242;2023-04-23T12:34:53;18.30;99.90
13148;DHT22;6639;50.956;4.242;2023-04-23T12:37:35;18.20;99.90
13148;DHT22;6639;50.956;4.242;2023-04-23T12:40:03;18.30;99.90
13148;DHT22;6639;50.956;4.242;2023-04-23T12:42:32;18.30;99.90
13148;DHT22;6639;50.956;4.242;2023-04-23T12:45:08;18.50;99.90
13148;DHT22;6639;50.956;4.242;2023-04-23T12:47:37;18.10;99.90
13148;DHT22;6639;50.956;4.242;2023-04-23T12:50:05;18.30;99.90
13148;DHT22;6639;50.956;4.242;2023-04-23T12:52:37;18.10;99.90
13148;DHT22;6639;50.956;4.242;2023-04-23T12:55:18;18.40;99.90
13148;DHT22;6639;50.956;4.242;2023-04-23T12:57:45;18.20;99.90
13148;DHT22;6639;50.956;4.242;2023-04-23T13:00:42;18.30;99.90
13148;DHT22;6639;50.956;4.242;2023-04-23T13:03:26;18.30;99.90
13148;DHT22;6639;50.956;4.242;2023-04-23T13:05:53;18.10;99.90
13148;DHT22;6639;50.956;4.242;2023-04-23T13:08:21;18.40;99.90
13148;DHT22;6639;50.956;4.242;2023-04-23T13:10:48;18.10;99.90
13148;DHT22;6639;50.956;4.242;2023-04-23T13:13:15;18.00;99.90
13148;DHT22;6639;50.956;4.242;2023-04-23T13:15:42;18.30;99.90
13148;DHT22;6639;50.956;4.242;2023-04-23T13:18:09;18.70;99.90
13148;DHT22;6639;50.956;4.242;2023-04-23T13:20:37;18.90;99.90
13148;DHT22;6639;50.956;4.242;2023-04-23T13:23:07;18.40;99.90
13148;DHT22;6639;50.956;4.242;2023-04-23T13:25:35;17.90;99.90
13148;DHT22;6639;50.956;4.242;2023-04-23T13:28:02;18.00;99.90
13148;DHT22;6639;50.956;4.242;2023-04-23T13:30:29;18.30;99.90
13148;DHT22;6639;50.956;4.242;2023-04-23T13:32:56;18.30;99.90
13148;DHT22;6639;50.956;4.242;2023-04-23T13:35:24;18.20;99.90
13148;DHT22;6639;50.956;4.242;2023-04-23T13:37:52;18.30;99.90
13148;DHT22;6639;50.956;4.242;2023-04-23T13:40:19;18.10;99.90
13148;DHT22;6639;50.956;4.242;2023-04-23T13:42:46;17.90;99.90
13148;DHT22;6639;50.956;4.242;2023-04-23T13:45:14;18.00;99.90
13148;DHT22;6639;50.956;4.242;2023-04-23T13:47:41;18.00;99.90
13148;DHT22;6639;50.956;4.242;2023-04-23T13:50:09;17.60;99.90
13148;DHT22;6639;50.956;4.242;2023-04-23T13:52:36;17.20;99.90
13148;DHT22;6639;50.956;4.242;2023-04-23T13:55:06;17.40;99.90
13148;DHT22;6639;50.956;4.242;2023-04-23T13:57:34;17.10;99.90
13148;DHT22;6639;50.956;4.242;2023-04-23T14:00:03;17.30;99.90
13148;DHT22;6639;50.956;4.242;2023-04-23T14:02:30;17.20;99.90
13148;DHT22;6639;50.956;4.242;2023-04-23T14:04:57;16.60;99.90
13148;DHT22;6639;50.956;4.242;2023-04-23T14:07:24;16.60;99.90
13148;DHT22;6639;50.956;4.242;2023-04-23T14:09:51;17.10;99.90
13148;DHT22;6639;50.956;4.242;2023-04-23T14:12:20;17.50;99.90
13148;DHT22;6639;50.956;4.242;2023-04-23T14:14:49;17.20;99.90
13148;DHT22;6639;50.956;4.242;2023-04-23T14:17:16;17.20;99.90
13148;DHT22;6639;50.956;4.242;2023-04-23T14:19:43;17.00;99.90
13148;DHT22;6639;50.956;4.242;2023-04-23T14:22:10;16.90;99.90
13148;DHT22;6639;50.956;4.242;2023-04-23T14:24:39;17.20;99.90
13148;DHT22;6639;50.956;4.242;2023-04-23T14:27:12;17.00;99.90
13148;DHT22;6639;50.956;4.242;2023-04-23T14:29:45;16.90;99.90
13148;DHT22;6639;50.956;4.242;2023-04-23T14:32:12;17.00;99.90
13148;DHT22;6639;50.956;4.242;2023-04-23T14:34:39;17.10;99.90
13148;DHT22;6639;50.956;4.242;2023-04-23T14:37:09;17.20;99.90
13148;DHT22;6639;50.956;4.242;2023-04-23T14:39:36;17.20;99.90
13148;DHT22;6639;50.956;4.242;2023-04-23T14:42:03;17.40;99.90
13148;DHT22;6639;50.956;4.242;2023-04-23T14:44:30;17.40;99.90
13148;DHT22;6639;50.956;4.242;2023-04-23T14:46:58;17.40;99.90
13148;DHT22;6639;50.956;4.242;2023-04-23T14:49:25;17.60;99.90
13148;DHT22;6639;50.956;4.242;2023-04-23T14:51:52;17.70;99.90
13148;DHT22;6639;50.956;4.242;2023-04-23T14:54:36;17.80;99.90
13148;DHT22;6639;50.956;4.242;2023-04-23T14:57:17;17.80;99.90
13148;DHT22;6639;50.956;4.242;2023-04-23T14:59:44;17.60;99.90
13148;DHT22;6639;50.956;4.242;2023-04-23T15:02:12;17.90;99.90
13148;DHT22;6639;50.956;4.242;2023-04-23T15:04:39;18.70;99.90
13148;DHT22;6639;50.956;4.242;2023-04-23T15:07:06;18.30;99.90
13148;DHT22;6639;50.956;4.242;2023-04-23T15:09:33;17.80;99.90
13148;DHT22;6639;50.956;4.242;2023-04-23T15:12:04;17.60;99.90
13148;DHT22;6639;50.956;4.242;2023-04-23T15:14:36;17.70;99.90
13148;DHT22;6639;50.956;4.242;2023-04-23T15:17:04;17.80;99.90
13148;DHT22;6639;50.956;4.242;2023-04-23T15:19:32;17.70;99.90
13148;DHT22;6639;50.956;4.242;2023-04-23T15:21:59;17.70;99.90
13148;DHT22;6639;50.956;4.242;2023-04-23T15:24:26;17.70;99.90
13148;DHT22;6639;50.956;4.242;2023-04-23T15:26:53;17.50;99.90
13148;DHT22;6639;50.956;4.242;2023-04-23T15:29:26;18.00;99.90
13148;DHT22;6639;50.956;4.242;2023-04-23T15:31:54;17.90;99.90
13148;DHT22;6639;50.956;4.242;2023-04-23T15:34:23;18.10;99.90
13148;DHT22;6639;50.956;4.242;2023-04-23T15:36:51;18.50;99.90
13148;DHT22;6639;50.956;4.242;2023-04-23T15:39:18;18.80;99.90
13148;DHT22;6639;50.956;4.242;2023-04-23T15:41:45;18.40;99.90
13148;DHT22;6639;50.956;4.242;2023-04-23T15:44:12;18.50;99.90
13148;DHT22;6639;50.956;4.242;2023-04-23T15:46:39;18.40;99.90
13148;DHT22;6639;50.956;4.242;2023-04-23T15:49:07;18.50;99.90
13148;DHT22;6639;50.956;4.242;2023-04-23T15:51:34;18.50;99.90
13148;DHT22;6639;50.956;4.242;2023-04-23T15:54:02;18.40;99.90
13148;DHT22;6639;50.956;4.242;2023-04-23T15:56:32;18.60;99.90